KMOT/MOT METAR and TAF weather

Enter ICAO airport designator
Station Type Date Time Source
KMOT METAR 2020/07/14 07:54 UTC NOAA

KMOT 140754Z AUTO 22007KT 10SM CLR 13/09 A2986 RMK AO2 SLP106 T01330089


Station Type Date Time Source
KMOT Decoded METAR 2020/07/14 07:54 UTC NOAA

MINOT INTERNATIONAL AIRPORT , ND, United States (KMOT) 48-16N 101-17W 519M
Jul 14, 2020 - 03:54 AM EDT / 2020.07.14 0754 UTC
Wind: from the SW (220 degrees) at 8 MPH (7 KT):0
Visibility: 10 mile(s):0
Sky conditions: clear
Temperature: 55.9 F (13.3 C)
Dew Point: 48.0 F (8.9 C)
Relative Humidity: 74%
Pressure (altimeter): 29.86 in. Hg (1011 hPa)
ob: KMOT 140754Z AUTO 22007KT 10SM CLR 13/09 A2986 RMK AO2 SLP106 T01330089
cycle: 8

Station Type Date Time Source
KMOT TAF 2020/07/14 06:24 UTC NOAA

TAF KMOT 140522Z 1406/1506 28011KT P6SM SKC
FM140900 24009KT P6SM SKC
FM141700 26014G22KT P6SM SKC
FM150100 25013KT P6SM FEW080 FEW250

Example: see airport list